sensor_id;sensor_type;location;lat;lon;timestamp;pressure;altitude;pressure_sealevel;temperature;humidity
55604;BME280;41468;48.838;9.330;2023-11-21T00:00:58;97738.28;;;9.19;100.00
55604;BME280;41468;48.838;9.330;2023-11-21T00:03:25;97742.09;;;9.11;100.00
55604;BME280;41468;48.838;9.330;2023-11-21T00:05:54;97733.22;;;9.18;100.00
55604;BME280;41468;48.838;9.330;2023-11-21T00:08:21;97730.41;;;9.11;100.00
55604;BME280;41468;48.838;9.330;2023-11-21T00:10:48;97733.09;;;9.07;100.00
55604;BME280;41468;48.838;9.330;2023-11-21T00:13:15;97728.72;;;8.99;100.00
55604;BME280;41468;48.838;9.330;2023-11-21T00:15:41;97730.75;;;9.05;100.00
55604;BME280;41468;48.838;9.330;2023-11-21T00:18:08;97723.78;;;9.08;100.00
55604;BME280;41468;48.838;9.330;2023-11-21T00:20:35;97716.84;;;9.14;100.00
55604;BME280;41468;48.838;9.330;2023-11-21T00:23:02;97731.56;;;9.10;100.00
55604;BME280;41468;48.838;9.330;2023-11-21T00:25:29;97721.50;;;9.14;100.00
55604;BME280;41468;48.838;9.330;2023-11-21T00:27:55;97719.28;;;9.26;100.00
55604;BME280;41468;48.838;9.330;2023-11-21T00:30:22;97725.13;;;9.25;100.00
55604;BME280;41468;48.838;9.330;2023-11-21T00:32:49;97721.22;;;9.22;100.00
55604;BME280;41468;48.838;9.330;2023-11-21T00:35:16;97726.13;;;9.10;100.00
55604;BME280;41468;48.838;9.330;2023-11-21T00:37:42;97725.47;;;9.23;100.00
55604;BME280;41468;48.838;9.330;2023-11-21T00:40:17;97725.16;;;9.28;100.00
55604;BME280;41468;48.838;9.330;2023-11-21T00:42:48;97721.22;;;9.22;100.00
55604;BME280;41468;48.838;9.330;2023-11-21T00:45:14;97721.50;;;9.14;100.00
55604;BME280;41468;48.838;9.330;2023-11-21T00:47:41;97718.38;;;9.12;100.00
55604;BME280;41468;48.838;9.330;2023-11-21T00:50:09;97719.16;;;9.16;100.00
55604;BME280;41468;48.838;9.330;2023-11-21T00:52:36;97725.06;;;9.21;100.00
55604;BME280;41468;48.838;9.330;2023-11-21T00:55:06;97721.50;;;9.14;100.00
55604;BME280;41468;48.838;9.330;2023-11-21T00:57:35;97721.53;;;9.17;100.00
55604;BME280;41468;48.838;9.330;2023-11-21T01:00:02;97717.66;;;9.18;100.00
55604;BME280;41468;48.838;9.330;2023-11-21T01:02:34;97726.63;;;9.19;100.00
55604;BME280;41468;48.838;9.330;2023-11-21T01:05:02;97733.19;;;9.14;100.00
55604;BME280;41468;48.838;9.330;2023-11-21T01:07:30;97725.03;;;9.18;100.00
55604;BME280;41468;48.838;9.330;2023-11-21T01:09:57;97724.69;;;9.19;100.00
55604;BME280;41468;48.838;9.330;2023-11-21T01:12:23;97720.88;;;9.27;100.00
55604;BME280;41468;48.838;9.330;2023-11-21T01:14:52;97718.81;;;9.17;100.00
55604;BME280;41468;48.838;9.330;2023-11-21T01:17:19;97722.28;;;9.14;100.00
55604;BME280;41468;48.838;9.330;2023-11-21T01:19:46;97719.16;;;9.12;100.00
55604;BME280;41468;48.838;9.330;2023-11-21T01:22:13;97718.81;;;9.17;100.00
55604;BME280;41468;48.838;9.330;2023-11-21T01:24:40;97716.50;;;9.19;100.00
55604;BME280;41468;48.838;9.330;2023-11-21T01:27:06;97719.16;;;9.12;100.00
55604;BME280;41468;48.838;9.330;2023-11-21T01:29:33;97718.81;;;9.17;100.00
55604;BME280;41468;48.838;9.330;2023-11-21T01:32:02;97729.69;;;9.14;100.00
55604;BME280;41468;48.838;9.330;2023-11-21T01:34:30;97728.47;;;9.11;100.00
55604;BME280;41468;48.838;9.330;2023-11-21T01:36:57;97723.06;;;9.15;100.00
55604;BME280;41468;48.838;9.330;2023-11-21T01:39:25;97732.00;;;9.15;100.00
55604;BME280;41468;48.838;9.330;2023-11-21T01:41:52;97727.75;;;9.18;100.00
55604;BME280;41468;48.838;9.330;2023-11-21T01:44:19;97719.88;;;9.09;100.00
55604;BME280;41468;48.838;9.330;2023-11-21T01:46:46;97726.09;;;9.06;100.00
55604;BME280;41468;48.838;9.330;2023-11-21T01:49:14;97719.06;;;9.05;100.00
55604;BME280;41468;48.838;9.330;2023-11-21T01:51:43;97713.66;;;9.09;100.00
55604;BME280;41468;48.838;9.330;2023-11-21T01:54:18;97712.88;;;9.08;100.00
55604;BME280;41468;48.838;9.330;2023-11-21T01:56:48;97709.00;;;9.09;100.00
55604;BME280;41468;48.838;9.330;2023-11-21T01:59:19;97721.44;;;9.10;100.00
55604;BME280;41468;48.838;9.330;2023-11-21T02:01:48;97718.38;;;9.12;100.00
55604;BME280;41468;48.838;9.330;2023-11-21T02:04:22;97728.47;;;9.11;100.00
55604;BME280;41468;48.838;9.330;2023-11-21T02:06:54;97726.97;;;9.17;100.00
55604;BME280;41468;48.838;9.330;2023-11-21T02:09:28;97724.59;;;9.12;100.00
55604;BME280;41468;48.838;9.330;2023-11-21T02:11:56;97722.28;;;9.14;100.00
55604;BME280;41468;48.838;9.330;2023-11-21T02:14:25;97720.31;;;9.11;100.00
55604;BME280;41468;48.838;9.330;2023-11-21T02:16:54;97725.34;;;9.09;100.00
55604;BME280;41468;48.838;9.330;2023-11-21T02:19:21;97719.50;;;9.11;100.00
55604;BME280;41468;48.838;9.330;2023-11-21T02:21:57;97725.66;;;9.04;100.00
55604;BME280;41468;48.838;9.330;2023-11-21T02:24:27;97712.59;;;9.17;100.00
55604;BME280;41468;48.838;9.330;2023-11-21T02:26:54;97710.63;;;9.17;100.00
55604;BME280;41468;48.838;9.330;2023-11-21T02:29:21;97714.44;;;9.09;100.00
55604;BME280;41468;48.838;9.330;2023-11-21T02:31:52;97720.22;;;9.04;100.00
55604;BME280;41468;48.838;9.330;2023-11-21T02:34:22;97717.41;;;8.97;100.00
55604;BME280;41468;48.838;9.330;2023-11-21T02:36:49;97708.47;;;8.96;100.00
55604;BME280;41468;48.838;9.330;2023-11-21T02:39:17;97702.38;;;9.10;100.00
55604;BME280;41468;48.838;9.330;2023-11-21T02:41:44;97710.94;;;9.09;100.00
55604;BME280;41468;48.838;9.330;2023-11-21T02:44:11;97700.41;;;9.07;100.00
55604;BME280;41468;48.838;9.330;2023-11-21T02:46:37;97701.16;;;9.04;100.00
55604;BME280;41468;48.838;9.330;2023-11-21T02:49:06;97702.06;;;9.15;100.00
55604;BME280;41468;48.838;9.330;2023-11-21T02:51:33;97700.81;;;9.09;100.00
55604;BME280;41468;48.838;9.330;2023-11-21T02:54:00;97701.69;;;9.17;100.00
55604;BME280;41468;48.838;9.330;2023-11-21T02:56:29;97701.31;;;9.18;100.00
55604;BME280;41468;48.838;9.330;2023-11-21T02:58:56;97700.16;;;9.19;100.00
55604;BME280;41468;48.838;9.330;2023-11-21T03:01:23;97701.25;;;9.11;100.00
55604;BME280;41468;48.838;9.330;2023-11-21T03:03:53;97702.00;;;9.08;100.00
55604;BME280;41468;48.838;9.330;2023-11-21T03:06:20;97702.09;;;9.19;100.00
55604;BME280;41468;48.838;9.330;2023-11-21T03:08:47;97702.13;;;9.22;100.00
55604;BME280;41468;48.838;9.330;2023-11-21T03:11:14;97702.56;;;9.24;100.00
55604;BME280;41468;48.838;9.330;2023-11-21T03:13:41;97705.03;;;9.03;100.00
55604;BME280;41468;48.838;9.330;2023-11-21T03:16:12;97712.91;;;9.12;100.00
55604;BME280;41468;48.838;9.330;2023-11-21T03:18:39;97713.69;;;9.12;100.00
55604;BME280;41468;48.838;9.330;2023-11-21T03:21:07;97703.63;;;9.16;100.00
55604;BME280;41468;48.838;9.330;2023-11-21T03:23:37;97706.09;;;9.28;100.00
55604;BME280;41468;48.838;9.330;2023-11-21T03:26:04;97714.69;;;9.31;100.00
55604;BME280;41468;48.838;9.330;2023-11-21T03:28:30;97715.47;;;9.35;100.00
55604;BME280;41468;48.838;9.330;2023-11-21T03:30:57;97713.81;;;9.23;100.00
55604;BME280;41468;48.838;9.330;2023-11-21T03:33:24;97713.94;;;9.37;100.00
55604;BME280;41468;48.838;9.330;2023-11-21T03:35:51;97700.66;;;9.32;100.00
55604;BME280;41468;48.838;9.330;2023-11-21T03:38:19;97714.38;;;9.39;100.00
55604;BME280;41468;48.838;9.330;2023-11-21T03:40:46;97709.88;;;9.17;100.00
55604;BME280;41468;48.838;9.330;2023-11-21T03:43:14;97710.22;;;9.15;100.00
55604;BME280;41468;48.838;9.330;2023-11-21T03:45:41;97707.78;;;9.06;100.00
55604;BME280;41468;48.838;9.330;2023-11-21T03:48:08;97715.63;;;9.08;100.00
55604;BME280;41468;48.838;9.330;2023-11-21T03:50:35;97718.25;;;9.01;100.00
55604;BME280;41468;48.838;9.330;2023-11-21T03:53:02;97717.06;;;9.02;100.00
55604;BME280;41468;48.838;9.330;2023-11-21T03:55:28;97724.88;;;9.03;100.00
55604;BME280;41468;48.838;9.330;2023-11-21T03:57:58;97724.69;;;9.19;100.00
55604;BME280;41468;48.838;9.330;2023-11-21T04:00:25;97718.44;;;9.19;100.00
55604;BME280;41468;48.838;9.330;2023-11-21T04:02:55;97727.00;;;9.21;100.00
55604;BME280;41468;48.838;9.330;2023-11-21T04:05:22;97721.63;;;9.24;100.00
55604;BME280;41468;48.838;9.330;2023-11-21T04:07:50;97718.03;;;9.17;100.00
55604;BME280;41468;48.838;9.330;2023-11-21T04:10:20;97716.53;;;9.23;100.00
55604;BME280;41468;48.838;9.330;2023-11-21T04:12:48;97717.16;;;9.09;100.00
55604;BME280;41468;48.838;9.330;2023-11-21T04:15:15;97721.06;;;9.08;100.00
55604;BME280;41468;48.838;9.330;2023-11-21T04:17:42;97727.22;;;9.05;100.00
55604;BME280;41468;48.838;9.330;2023-11-21T04:20:09;97736.59;;;9.07;100.00
55604;BME280;41468;48.838;9.330;2023-11-21T04:22:44;97731.06;;;9.00;100.00
55604;BME280;41468;48.838;9.330;2023-11-21T04:25:12;97731.47;;;9.02;100.00
55604;BME280;41468;48.838;9.330;2023-11-21T04:27:41;97740.78;;;8.98;100.00
55604;BME280;41468;48.838;9.330;2023-11-21T04:30:13;97728.28;;;8.97;100.00
55604;BME280;41468;48.838;9.330;2023-11-21T04:32:41;97734.53;;;8.97;100.00
55604;BME280;41468;48.838;9.330;2023-11-21T04:35:09;97727.91;;;8.95;100.00
55604;BME280;41468;48.838;9.330;2023-11-21T04:37:35;97733.75;;;8.97;100.00
55604;BME280;41468;48.838;9.330;2023-11-21T04:40:03;97730.75;;;9.05;100.00
55604;BME280;41468;48.838;9.330;2023-11-21T04:42:34;97735.31;;;8.98;100.00
55604;BME280;41468;48.838;9.330;2023-11-21T04:45:04;97732.97;;;8.96;100.00
55604;BME280;41468;48.838;9.330;2023-11-21T04:47:35;97741.78;;;8.86;100.00
55604;BME280;41468;48.838;9.330;2023-11-21T04:50:03;97748.38;;;8.85;100.00
55604;BME280;41468;48.838;9.330;2023-11-21T04:52:30;97744.94;;;8.92;100.00
55604;BME280;41468;48.838;9.330;2023-11-21T04:54:57;97746.97;;;8.95;100.00
55604;BME280;41468;48.838;9.330;2023-11-21T04:57:25;97753.22;;;8.99;100.00
55604;BME280;41468;48.838;9.330;2023-11-21T04:59:51;97757.09;;;8.98;100.00
55604;BME280;41468;48.838;9.330;2023-11-21T05:02:18;97749.28;;;8.96;100.00
55604;BME280;41468;48.838;9.330;2023-11-21T05:05:01;97748.06;;;8.90;100.00
55604;BME280;41468;48.838;9.330;2023-11-21T05:07:28;97747.03;;;9.02;100.00
55604;BME280;41468;48.838;9.330;2023-11-21T05:09:58;97752.56;;;9.09;100.00
55604;BME280;41468;48.838;9.330;2023-11-21T05:12:24;97740.50;;;9.10;100.00
55604;BME280;41468;48.838;9.330;2023-11-21T05:14:51;97744.50;;;9.16;100.00
55604;BME280;41468;48.838;9.330;2023-11-21T05:17:18;97760.31;;;9.07;100.00
55604;BME280;41468;48.838;9.330;2023-11-21T05:19:45;97747.88;;;9.06;100.00
55604;BME280;41468;48.838;9.330;2023-11-21T05:22:17;97747.28;;;9.23;100.00
55604;BME280;41468;48.838;9.330;2023-11-21T05:24:44;97756.22;;;9.24;100.00
55604;BME280;41468;48.838;9.330;2023-11-21T05:27:10;97760.91;;;9.23;100.00
55604;BME280;41468;48.838;9.330;2023-11-21T05:29:37;97759.56;;;9.10;100.00
55604;BME280;41468;48.838;9.330;2023-11-21T05:32:04;97761.19;;;9.15;100.00
55604;BME280;41468;48.838;9.330;2023-11-21T05:34:31;97759.00;;;8.94;100.00
55604;BME280;41468;48.838;9.330;2023-11-21T05:36:58;97766.84;;;8.99;100.00
55604;BME280;41468;48.838;9.330;2023-11-21T05:39:25;97772.59;;;8.94;100.00
55604;BME280;41468;48.838;9.330;2023-11-21T05:41:52;97774.91;;;8.92;100.00
55604;BME280;41468;48.838;9.330;2023-11-21T05:44:18;97781.16;;;8.92;100.00
55604;BME280;41468;48.838;9.330;2023-11-21T05:46:45;97779.09;;;8.85;100.00
55604;BME280;41468;48.838;9.330;2023-11-21T05:49:12;97776.41;;;8.89;100.00
55604;BME280;41468;48.838;9.330;2023-11-21T05:51:39;97781.81;;;8.85;100.00
55604;BME280;41468;48.838;9.330;2023-11-21T05:54:06;97782.28;;;8.91;100.00
55604;BME280;41468;48.838;9.330;2023-11-21T05:56:33;97788.50;;;8.92;100.00
55604;BME280;41468;48.838;9.330;2023-11-21T05:59:00;97782.63;;;8.86;100.00
55604;BME280;41468;48.838;9.330;2023-11-21T06:01:27;97788.13;;;8.90;100.00
55604;BME280;41468;48.838;9.330;2023-11-21T06:03:56;97784.25;;;8.91;100.00
55604;BME280;41468;48.838;9.330;2023-11-21T06:06:24;97789.00;;;8.97;100.00
55604;BME280;41468;48.838;9.330;2023-11-21T06:08:51;97789.78;;;8.98;100.00
55604;BME280;41468;48.838;9.330;2023-11-21T06:11:18;97791.94;;;9.15;100.00
55604;BME280;41468;48.838;9.330;2023-11-21T06:13:45;97796.56;;;9.11;100.00
55604;BME280;41468;48.838;9.330;2023-11-21T06:16:12;97805.47;;;9.08;100.00
55604;BME280;41468;48.838;9.330;2023-11-21T06:18:43;97803.56;;;9.12;100.00
55604;BME280;41468;48.838;9.330;2023-11-21T06:21:10;97808.56;;;9.06;100.00
55604;BME280;41468;48.838;9.330;2023-11-21T06:23:37;97813.88;;;8.96;100.00
55604;BME280;41468;48.838;9.330;2023-11-21T06:26:04;97817.06;;;8.75;100.00
55604;BME280;41468;48.838;9.330;2023-11-21T06:28:34;97818.66;;;8.76;100.00
55604;BME280;41468;48.838;9.330;2023-11-21T06:31:01;97816.72;;;8.76;100.00
55604;BME280;41468;48.838;9.330;2023-11-21T06:33:42;97822.00;;;8.66;100.00
55604;BME280;41468;48.838;9.330;2023-11-21T06:36:09;97828.91;;;8.59;100.00
55604;BME280;41468;48.838;9.330;2023-11-21T06:38:38;97828.22;;;8.66;100.00
55604;BME280;41468;48.838;9.330;2023-11-21T06:41:05;97830.63;;;8.71;100.00
55604;BME280;41468;48.838;9.330;2023-11-21T06:43:32;97826.88;;;8.79;100.00
55604;BME280;41468;48.838;9.330;2023-11-21T06:45:59;97831.63;;;8.86;100.00
55604;BME280;41468;48.838;9.330;2023-11-21T06:48:26;97832.94;;;8.96;100.00
55604;BME280;41468;48.838;9.330;2023-11-21T06:50:53;97836.06;;;8.98;100.00
55604;BME280;41468;48.838;9.330;2023-11-21T06:53:20;97827.53;;;8.99;100.00
55604;BME280;41468;48.838;9.330;2023-11-21T06:55:46;97833.03;;;9.03;100.00
55604;BME280;41468;48.838;9.330;2023-11-21T06:58:13;97839.13;;;8.93;100.00
55604;BME280;41468;48.838;9.330;2023-11-21T07:00:41;97843.31;;;8.87;100.00
55604;BME280;41468;48.838;9.330;2023-11-21T07:03:13;97846.19;;;8.97;100.00
55604;BME280;41468;48.838;9.330;2023-11-21T07:05:40;97842.97;;;8.92;100.00
55604;BME280;41468;48.838;9.330;2023-11-21T07:08:07;97854.00;;;9.02;100.00
55604;BME280;41468;48.838;9.330;2023-11-21T07:10:35;97847.03;;;9.05;100.00
55604;BME280;41468;48.838;9.330;2023-11-21T07:13:03;97857.72;;;9.17;100.00
55604;BME280;41468;48.838;9.330;2023-11-21T07:15:37;97855.22;;;9.05;100.00
55604;BME280;41468;48.838;9.330;2023-11-21T07:18:04;97862.66;;;9.08;100.00
55604;BME280;41468;48.838;9.330;2023-11-21T07:20:34;97862.25;;;9.06;100.00
55604;BME280;41468;48.838;9.330;2023-11-21T07:23:01;97860.66;;;9.05;100.00
55604;BME280;41468;48.838;9.330;2023-11-21T07:25:27;97869.38;;;9.14;100.00
55604;BME280;41468;48.838;9.330;2023-11-21T07:27:54;97865.47;;;9.15;100.00
55604;BME280;41468;48.838;9.330;2023-11-21T07:30:21;97866.00;;;9.24;100.00
55604;BME280;41468;48.838;9.330;2023-11-21T07:32:49;97874.75;;;9.11;100.00
55604;BME280;41468;48.838;9.330;2023-11-21T07:35:16;97870.91;;;9.15;100.00
55604;BME280;41468;48.838;9.330;2023-11-21T07:37:43;97872.81;;;9.11;100.00
55604;BME280;41468;48.838;9.330;2023-11-21T07:40:14;97883.56;;;9.27;100.00
55604;BME280;41468;48.838;9.330;2023-11-21T07:42:41;97874.06;;;9.17;100.00
55604;BME280;41468;48.838;9.330;2023-11-21T07:45:09;97885.59;;;9.37;100.00
55604;BME280;41468;48.838;9.330;2023-11-21T07:47:36;97885.06;;;9.24;100.00
55604;BME280;41468;48.838;9.330;2023-11-21T07:50:03;97892.81;;;9.22;100.00
55604;BME280;41468;48.838;9.330;2023-11-21T07:52:30;97886.63;;;9.25;100.00
55604;BME280;41468;48.838;9.330;2023-11-21T07:54:57;97895.91;;;9.21;100.00
55604;BME280;41468;48.838;9.330;2023-11-21T07:57:24;97896.09;;;9.35;100.00
55604;BME280;41468;48.838;9.330;2023-11-21T07:59:51;97902.09;;;9.18;100.00
55604;BME280;41468;48.838;9.330;2023-11-21T08:02:20;97902.13;;;9.21;100.00
55604;BME280;41468;48.838;9.330;2023-11-21T08:04:47;97898.69;;;9.24;100.00
55604;BME280;41468;48.838;9.330;2023-11-21T08:07:17;97899.63;;;9.36;100.00
55604;BME280;41468;48.838;9.330;2023-11-21T08:09:44;97911.59;;;9.31;100.00
55604;BME280;41468;48.838;9.330;2023-11-21T08:12:11;97906.94;;;9.32;100.00
55604;BME280;41468;48.838;9.330;2023-11-21T08:14:37;97914.34;;;9.31;100.00
55604;BME280;41468;48.838;9.330;2023-11-21T08:17:05;97912.97;;;9.44;100.00
55604;BME280;41468;48.838;9.330;2023-11-21T08:19:33;97908.34;;;9.48;100.00
55604;BME280;41468;48.838;9.330;2023-11-21T08:22:00;97912.97;;;9.44;100.00
55604;BME280;41468;48.838;9.330;2023-11-21T08:24:27;97913.72;;;9.45;100.00
55604;BME280;41468;48.838;9.330;2023-11-21T08:26:54;97916.78;;;9.40;100.00
55604;BME280;41468;48.838;9.330;2023-11-21T08:29:21;97914.66;;;9.26;100.00
55604;BME280;41468;48.838;9.330;2023-11-21T08:31:48;97913.03;;;9.21;100.00
55604;BME280;41468;48.838;9.330;2023-11-21T08:34:15;97920.72;;;9.16;100.00
55604;BME280;41468;48.838;9.330;2023-11-21T08:36:42;97920.06;;;9.22;100.00
55604;BME280;41468;48.838;9.330;2023-11-21T08:39:09;97928.66;;;9.24;100.00
55604;BME280;41468;48.838;9.330;2023-11-21T08:41:36;97916.28;;;9.31;100.00
55604;BME280;41468;48.838;9.330;2023-11-21T08:44:03;97919.09;;;9.38;100.00
55604;BME280;41468;48.838;9.330;2023-11-21T08:46:33;97925.56;;;9.56;100.00
55604;BME280;41468;48.838;9.330;2023-11-21T08:49:01;97923.78;;;9.67;100.00
55604;BME280;41468;48.838;9.330;2023-11-21T08:51:28;97929.16;;;9.64;100.00
55604;BME280;41468;48.838;9.330;2023-11-21T08:53:55;97929.16;;;9.64;100.00
55604;BME280;41468;48.838;9.330;2023-11-21T08:56:30;97935.81;;;9.66;100.00
55604;BME280;41468;48.838;9.330;2023-11-21T08:58:57;97936.56;;;9.63;100.00
55604;BME280;41468;48.838;9.330;2023-11-21T09:01:23;97943.03;;;9.82;100.00
55604;BME280;41468;48.838;9.330;2023-11-21T09:03:51;97948.06;;;9.80;100.00
55604;BME280;41468;48.838;9.330;2023-11-21T09:06:18;97937.84;;;9.73;100.00
55604;BME280;41468;48.838;9.330;2023-11-21T09:08:45;97935.03;;;9.66;100.00
55604;BME280;41468;48.838;9.330;2023-11-21T09:11:12;97938.72;;;9.81;100.00
55604;BME280;41468;48.838;9.330;2023-11-21T09:13:39;97948.84;;;9.80;100.00
55604;BME280;41468;48.838;9.330;2023-11-21T09:16:06;97958.22;;;9.83;100.00
55604;BME280;41468;48.838;9.330;2023-11-21T09:18:33;97952.69;;;9.76;100.00
55604;BME280;41468;48.838;9.330;2023-11-21T09:21:04;97958.63;;;9.85;100.00
55604;BME280;41468;48.838;9.330;2023-11-21T09:23:31;97954.06;;;9.92;100.00
55604;BME280;41468;48.838;9.330;2023-11-21T09:25:58;97950.59;;;9.95;100.00
55604;BME280;41468;48.838;9.330;2023-11-21T09:28:27;97957.25;;;10.02;100.00
55604;BME280;41468;48.838;9.330;2023-11-21T09:30:54;97953.72;;;9.98;100.00
55604;BME280;41468;48.838;9.330;2023-11-21T09:33:21;97953.88;;;10.12;100.00
55604;BME280;41468;48.838;9.330;2023-11-21T09:35:48;97953.25;;;10.26;100.00
55604;BME280;41468;48.838;9.330;2023-11-21T09:38:17;97952.69;;;10.43;100.00
55604;BME280;41468;48.838;9.330;2023-11-21T09:40:44;97950.28;;;10.38;100.00
55604;BME280;41468;48.838;9.330;2023-11-21T09:43:17;97960.56;;;10.52;100.00
55604;BME280;41468;48.838;9.330;2023-11-21T09:45:46;97957.06;;;10.55;100.00
55604;BME280;41468;48.838;9.330;2023-11-21T09:48:14;97958.63;;;10.52;100.00
55604;BME280;41468;48.838;9.330;2023-11-21T09:50:43;97954.22;;;10.41;100.00
55604;BME280;41468;48.838;9.330;2023-11-21T09:53:17;97968.97;;;10.36;100.00
55604;BME280;41468;48.838;9.330;2023-11-21T09:55:46;97971.28;;;10.34;100.00
55604;BME280;41468;48.838;9.330;2023-11-21T09:58:14;97979.53;;;10.37;100.00
55604;BME280;41468;48.838;9.330;2023-11-21T10:00:43;97967.56;;;10.49;100.00
55604;BME280;41468;48.838;9.330;2023-11-21T10:03:10;97970.72;;;10.55;100.00
55604;BME280;41468;48.838;9.330;2023-11-21T10:05:39;97965.91;;;10.41;100.00
55604;BME280;41468;48.838;9.330;2023-11-21T10:08:10;97969.13;;;10.50;100.00
55604;BME280;41468;48.838;9.330;2023-11-21T10:10:45;97973.88;;;10.57;100.00
55604;BME280;41468;48.838;9.330;2023-11-21T10:13:13;97966.03;;;10.55;100.00
55604;BME280;41468;48.838;9.330;2023-11-21T10:15:44;97972.81;;;10.69;100.00
55604;BME280;41468;48.838;9.330;2023-11-21T10:18:16;97973.22;;;10.71;100.00
55604;BME280;41468;48.838;9.330;2023-11-21T10:20:43;97980.19;;;10.65;100.00
55604;BME280;41468;48.838;9.330;2023-11-21T10:23:13;97984.47;;;10.66;100.00
55604;BME280;41468;48.838;9.330;2023-11-21T10:25:42;97976.38;;;10.73;100.00
55604;BME280;41468;48.838;9.330;2023-11-21T10:28:09;97981.44;;;10.74;100.00
55604;BME280;41468;48.838;9.330;2023-11-21T10:30:38;97985.75;;;10.75;100.00
55604;BME280;41468;48.838;9.330;2023-11-21T10:33:06;97980.09;;;10.54;100.00
55604;BME280;41468;48.838;9.330;2023-11-21T10:35:47;97986.00;;;10.59;100.00
55604;BME280;41468;48.838;9.330;2023-11-21T10:38:18;97986.44;;;10.69;100.00
55604;BME280;41468;48.838;9.330;2023-11-21T10:40:55;97990.78;;;10.70;100.00
55604;BME280;41468;48.838;9.330;2023-11-21T10:43:26;97987.28;;;10.73;100.00
55604;BME280;41468;48.838;9.330;2023-11-21T10:45:57;97985.69;;;10.72;100.00
55604;BME280;41468;48.838;9.330;2023-11-21T10:48:25;97987.66;;;10.71;100.00
55604;BME280;41468;48.838;9.330;2023-11-21T10:50:52;97985.34;;;10.73;100.00
55604;BME280;41468;48.838;9.330;2023-11-21T10:53:19;97992.31;;;10.67;100.00
55604;BME280;41468;48.838;9.330;2023-11-21T10:55:46;97986.34;;;10.58;100.00
55604;BME280;41468;48.838;9.330;2023-11-21T10:58:14;97998.81;;;10.55;100.00
55604;BME280;41468;48.838;9.330;2023-11-21T11:00:41;97987.06;;;10.48;100.00
55604;BME280;41468;48.838;9.330;2023-11-21T11:03:09;97998.66;;;10.41;100.00
55604;BME280;41468;48.838;9.330;2023-11-21T11:05:46;98001.41;;;10.41;100.00
55604;BME280;41468;48.838;9.330;2023-11-21T11:08:20;98000.69;;;10.48;100.00
55604;BME280;41468;48.838;9.330;2023-11-21T11:10:58;97997.16;;;10.47;100.00
55604;BME280;41468;48.838;9.330;2023-11-21T11:13:25;97997.84;;;10.37;100.00
55604;BME280;41468;48.838;9.330;2023-11-21T11:15:57;97997.16;;;10.47;100.00
55604;BME280;41468;48.838;9.330;2023-11-21T11:18:26;97997.84;;;10.37;100.00
55604;BME280;41468;48.838;9.330;2023-11-21T11:20:53;98000.91;;;10.32;100.00
55604;BME280;41468;48.838;9.330;2023-11-21T11:26:46;97998.44;;;10.23;100.00
55604;BME280;41468;48.838;9.330;2023-11-21T11:29:39;97991.84;;;10.24;100.00
55604;BME280;41468;48.838;9.330;2023-11-21T11:32:25;97993.53;;;10.36;100.00
55604;BME280;41468;48.838;9.330;2023-11-21T11:35:04;97995.59;;;10.46;100.00
55604;BME280;41468;48.838;9.330;2023-11-21T11:37:33;97995.63;;;10.50;100.00
55604;BME280;41468;48.838;9.330;2023-11-21T11:40:00;97992.16;;;10.53;100.00
55604;BME280;41468;48.838;9.330;2023-11-21T11:42:27;98008.59;;;10.60;100.00
55604;BME280;41468;48.838;9.330;2023-11-21T11:44:57;97999.72;;;10.67;100.00
55604;BME280;41468;48.838;9.330;2023-11-21T11:52:42;97998.78;;;10.52;100.00
55604;BME280;41468;48.838;9.330;2023-11-21T11:55:21;98002.25;;;10.49;100.00
55604;BME280;41468;48.838;9.330;2023-11-21T11:57:52;98000.31;;;10.49;100.00
55604;BME280;41468;48.838;9.330;2023-11-21T12:00:43;98001.06;;;10.46;100.00
55604;BME280;41468;48.838;9.330;2023-11-21T12:03:13;98001.41;;;10.41;100.00
55604;BME280;41468;48.838;9.330;2023-11-21T12:05:40;98006.50;;;10.43;100.00
55604;BME280;41468;48.838;9.330;2023-11-21T12:08:09;98013.03;;;10.34;100.00
55604;BME280;41468;48.838;9.330;2023-11-21T12:10:38;98010.66;;;10.33;100.00
55604;BME280;41468;48.838;9.330;2023-11-21T12:13:08;98010.38;;;10.42;100.00
55604;BME280;41468;48.838;9.330;2023-11-21T12:15:35;98014.28;;;10.44;100.00
55604;BME280;41468;48.838;9.330;2023-11-21T12:18:04;98018.31;;;10.54;100.00
55604;BME280;41468;48.838;9.330;2023-11-21T12:20:31;98017.44;;;10.46;100.00
55604;BME280;41468;48.838;9.330;2023-11-21T12:22:59;98011.66;;;10.51;100.00
55604;BME280;41468;48.838;9.330;2023-11-21T12:25:28;98009.69;;;10.52;100.00
55604;BME280;41468;48.838;9.330;2023-11-21T12:27:57;98010.16;;;10.61;100.00
55604;BME280;41468;48.838;9.330;2023-11-21T12:30:26;98013.09;;;10.79;100.00
55604;BME280;41468;48.838;9.330;2023-11-21T12:33:02;98018.22;;;10.88;100.00
55604;BME280;41468;48.838;9.330;2023-11-21T12:35:31;98013.84;;;10.79;100.00
55604;BME280;41468;48.838;9.330;2023-11-21T12:38:02;98018.47;;;10.72;100.00
55604;BME280;41468;48.838;9.330;2023-11-21T12:40:29;98011.00;;;10.65;100.00
55604;BME280;41468;48.838;9.330;2023-11-21T12:42:59;98018.84;;;10.67;100.00
55604;BME280;41468;48.838;9.330;2023-11-21T12:45:28;98021.69;;;10.81;100.00
55604;BME280;41468;48.838;9.330;2023-11-21T12:48:04;98025.94;;;10.75;100.00
55604;BME280;41468;48.838;9.330;2023-11-21T12:50:38;98020.75;;;10.66;100.00
55604;BME280;41468;48.838;9.330;2023-11-21T12:53:10;98030.22;;;10.76;100.00
55604;BME280;41468;48.838;9.330;2023-11-21T12:55:44;98021.34;;;10.86;100.00
55604;BME280;41468;48.838;9.330;2023-11-21T12:58:17;98023.84;;;11.02;100.00
55604;BME280;41468;48.838;9.330;2023-11-21T13:00:47;98025.91;;;11.16;100.00
55604;BME280;41468;48.838;9.330;2023-11-21T13:03:16;98026.69;;;11.16;100.00
55604;BME280;41468;48.838;9.330;2023-11-21T13:05:50;98018.03;;;11.11;100.00
55604;BME280;41468;48.838;9.330;2023-11-21T13:08:19;98023.50;;;11.07;100.00
55604;BME280;41468;48.838;9.330;2023-11-21T13:10:51;98025.47;;;11.14;100.00
55604;BME280;41468;48.838;9.330;2023-11-21T13:13:18;98028.91;;;11.03;100.00